Time;durP1;ratioP1;P1;durP2;ratioP2;P2;SDS_P1;SDS_P2;PMS_P1;PMS_P2;Temp;Humidity;BMP_temperature;BMP_pressure;BME280_temperature;BME280_humidity;BME280_pressure;Samples;Min_cycle;Max_cycle;Signal;HPM_P1;HPM_P2
2023/07/27 01:10:10;;;;;;;4.55;3.22;;;12.10;99.90;;;;;;5022001;28;20056;-94
2023/07/27 01:18:44;;;;;;;5.60;3.50;;;12.10;99.90;;;;;;4979344;28;20032;-91
2023/07/27 01:22:25;;;;;;;6.22;3.47;;;12.10;99.90;;;;;;4931998;29;20080;-93
2023/07/27 01:34:21;;;;;;;3.40;2.83;;;12.10;99.90;;;;;;4912263;29;20060;-94
2023/07/27 01:37:54;;;;;;;;;;;;;;;;;;;;;
2023/07/27 01:49:38;;;;;;;4.20;3.05;;;12.20;1.00;;;;;;4905071;29;20103;-91
2023/07/27 01:52:42;;;;;;;3.55;3.00;;;12.20;1.00;;;;;;4887322;29;20114;-94
2023/07/27 01:55:56;;;;;;;3.30;2.75;;;12.20;1.00;;;;;;4887328;29;20057;-93
2023/07/27 02:03:12;;;;;;;7.40;3.50;;;12.10;14.80;;;;;;4886721;29;20171;-91
2023/07/27 02:06:28;;;;;;;6.88;3.35;;;12.10;41.90;;;;;;4927369;29;20060;-89
2023/07/27 02:10:11;;;;;;;7.60;3.40;;;12.10;69.60;;;;;;4945843;29;20059;-93
2023/07/27 02:18:03;;;;;;;5.32;3.20;;;12.20;99.90;;;;;;4998675;28;20080;-93
2023/07/27 02:25:50;;;;;;;4.68;3.15;;;12.20;99.90;;;;;;5055761;28;20045;-90
2023/07/27 02:28:59;;;;;;;7.25;3.42;;;12.20;99.90;;;;;;5054417;28;20064;-95
2023/07/27 02:32:53;;;;;;;6.38;3.30;;;12.20;99.90;;;;;;5086828;28;20045;-93
2023/07/27 02:44:05;;;;;;;4.45;3.38;;;12.20;99.90;;;;;;4942145;28;20169;-92
2023/07/27 02:47:05;;;;;;;7.28;3.60;;;12.20;99.90;;;;;;4966351;28;20058;-94
2023/07/27 03:03:56;;;;;;;;;;;;;;;;;;;;;
2023/07/27 03:46:09;;;;;;;5.15;3.63;;;12.50;99.90;;;;;;6049525;22;20049;-93
2023/07/27 03:54:01;;;;;;;4.00;3.42;;;12.50;99.90;;;;;;4892624;29;20082;-93
2023/07/27 04:06:19;;;;;;;;;;;;;;;;;;;;;
2023/07/27 04:30:28;;;;;;;5.88;3.20;;;12.70;99.90;;;;;;4872500;29;20083;-91
2023/07/27 04:33:29;;;;;;;4.95;3.10;;;12.80;99.90;;;;;;4856198;29;20045;-91
2023/07/27 04:36:30;;;;;;;6.45;3.30;;;12.80;99.90;;;;;;4892926;28;20381;-90
2023/07/27 04:39:19;;;;;;;3.75;3.10;;;12.80;99.90;;;;;;4977211;28;20144;-91
2023/07/27 04:42:07;;;;;;;6.80;3.28;;;12.90;99.90;;;;;;4962224;28;20121;-91
2023/07/27 04:44:54;;;;;;;4.30;2.97;;;13.00;99.90;;;;;;5000473;28;20137;-90
2023/07/27 04:47:45;;;;;;;4.25;3.20;;;13.00;89.30;;;;;;5015577;28;20383;-91
2023/07/27 04:51:04;;;;;;;6.50;3.10;;;13.10;24.50;;;;;;5004080;28;20068;-93
2023/07/27 04:53:58;;;;;;;6.80;3.35;;;13.10;1.00;;;;;;5007184;28;20065;-95
2023/07/27 04:56:45;;;;;;;5.68;2.92;;;13.20;1.00;;;;;;5014023;28;20050;-94
2023/07/27 04:59:33;;;;;;;4.40;2.88;;;13.20;1.00;;;;;;5028702;28;20057;-92
2023/07/27 05:02:22;;;;;;;8.90;3.55;;;13.30;1.00;;;;;;5008421;28;20061;-91
2023/07/27 05:05:10;;;;;;;5.22;2.50;;;13.30;1.00;;;;;;5015340;28;20048;-93
2023/07/27 05:08:11;;;;;;;3.83;3.10;;;13.30;1.00;;;;;;5024423;28;20057;-90
2023/07/27 05:11:06;;;;;;;3.53;2.80;;;13.50;1.00;;;;;;5023574;28;20133;-91
2023/07/27 05:13:53;;;;;;;4.50;2.97;;;13.50;99.90;;;;;;5021733;28;20045;-91
2023/07/27 05:16:40;;;;;;;3.75;2.45;;;13.60;99.90;;;;;;5019776;28;20052;-90
2023/07/27 05:19:28;;;;;;;3.78;2.60;;;13.60;99.90;;;;;;5022695;28;20105;-93
2023/07/27 05:22:17;;;;;;;8.80;2.95;;;13.70;99.90;;;;;;5011353;28;20051;-94
2023/07/27 05:25:08;;;;;;;6.50;2.85;;;13.70;99.90;;;;;;5032059;28;20037;-92
2023/07/27 05:27:55;;;;;;;3.50;2.70;;;13.70;99.90;;;;;;5018253;28;20050;-93
2023/07/27 05:30:45;;;;;;;3.53;2.58;;;13.80;99.90;;;;;;5021350;28;20053;-89
2023/07/27 05:33:34;;;;;;;4.40;2.70;;;13.80;99.90;;;;;;5029815;28;20113;-91
2023/07/27 05:36:21;;;;;;;4.75;2.50;;;13.80;99.90;;;;;;5023634;28;20062;-89
2023/07/27 05:39:09;;;;;;;3.90;2.80;;;13.90;99.90;;;;;;5033824;28;20046;-93
2023/07/27 05:41:56;;;;;;;3.45;2.42;;;13.90;99.90;;;;;;5024538;28;20060;-92
2023/07/27 05:44:45;;;;;;;4.32;2.45;;;14.00;99.90;;;;;;5010312;28;20042;-93
2023/07/27 05:47:32;;;;;;;3.75;2.80;;;14.00;99.90;;;;;;5026463;28;20053;-92
2023/07/27 05:50:20;;;;;;;3.05;2.70;;;14.10;99.90;;;;;;5012669;28;20181;-90
2023/07/27 05:53:10;;;;;;;3.95;2.75;;;14.10;99.90;;;;;;5010868;28;20042;-89
2023/07/27 05:55:59;;;;;;;6.20;3.08;;;14.10;99.90;;;;;;5006240;28;20348;-90
2023/07/27 05:58:46;;;;;;;5.22;3.22;;;14.20;99.90;;;;;;5022863;28;20041;-88
2023/07/27 06:01:36;;;;;;;4.75;2.83;;;14.20;99.90;;;;;;5023505;28;20057;-89
2023/07/27 06:04:44;;;;;;;5.05;3.20;;;14.20;99.90;;;;;;5010956;28;20495;-90
2023/07/27 06:07:39;;;;;;;4.57;2.80;;;14.30;99.90;;;;;;5008504;28;20050;-89
2023/07/27 06:10:35;;;;;;;3.25;2.70;;;14.30;99.90;;;;;;5010958;28;20103;-91
2023/07/27 06:13:29;;;;;;;6.40;3.15;;;14.30;99.90;;;;;;5017690;28;20050;-88
2023/07/27 06:16:16;;;;;;;5.53;3.43;;;14.40;99.90;;;;;;5009751;28;20518;-91
2023/07/27 06:19:06;;;;;;;4.25;2.72;;;14.40;99.90;;;;;;5022309;28;20284;-88
2023/07/27 06:21:53;;;;;;;4.32;2.50;;;14.40;99.90;;;;;;5010494;28;20133;-88
2023/07/27 06:24:43;;;;;;;4.72;2.75;;;14.40;99.90;;;;;;5007782;28;20379;-92
2023/07/27 06:27:38;;;;;;;2.65;2.20;;;14.30;99.90;;;;;;5011512;28;20489;-88
2023/07/27 06:30:25;;;;;;;3.17;2.60;;;14.30;99.90;;;;;;5010902;28;20047;-89
2023/07/27 06:33:14;;;;;;;6.47;2.90;;;14.20;99.90;;;;;;5006820;28;20048;-91
2023/07/27 06:36:06;;;;;;;4.88;2.70;;;14.30;99.90;;;;;;5019436;28;20053;-88
2023/07/27 06:38:54;;;;;;;6.93;2.75;;;14.40;99.90;;;;;;5010494;28;20046;-89
2023/07/27 06:41:41;;;;;;;4.88;2.90;;;14.40;99.90;;;;;;5006600;28;20053;-90
2023/07/27 06:44:32;;;;;;;5.30;2.80;;;14.40;99.90;;;;;;5021540;28;20096;-89
2023/07/27 06:47:54;;;;;;;5.63;2.50;;;14.40;99.90;;;;;;5011398;28;20125;-92
2023/07/27 06:50:43;;;;;;;3.78;3.08;;;14.30;99.90;;;;;;5009620;28;20132;-90
2023/07/27 06:53:34;;;;;;;4.35;3.05;;;14.30;99.90;;;;;;5008059;28;20069;-91
2023/07/27 06:56:52;;;;;;;3.25;2.80;;;14.30;1.00;;;;;;5022547;28;20038;-88
2023/07/27 06:59:45;;;;;;;4.22;2.95;;;14.30;1.00;;;;;;5010034;28;20479;-91
2023/07/27 07:02:39;;;;;;;7.35;3.38;;;14.40;1.00;;;;;;5010705;28;20415;-91
2023/07/27 07:05:35;;;;;;;5.90;2.90;;;14.50;1.00;;;;;;5011918;28;20132;-91
2023/07/27 07:09:11;;;;;;;5.85;3.20;;;14.60;99.90;;;;;;5011501;28;20042;-92
2023/07/27 07:12:40;;;;;;;5.43;3.15;;;14.70;99.90;;;;;;4997203;28;20490;-91
2023/07/27 07:15:55;;;;;;;6.00;3.30;;;14.80;99.90;;;;;;5021575;28;20058;-93
2023/07/27 07:19:57;;;;;;;;;;;;;;;;;;;;;
2023/07/27 07:23:18;;;;;;;5.63;2.83;;;14.90;99.90;;;;;;4966153;28;20044;-89
2023/07/27 07:26:09;;;;;;;3.00;2.60;;;15.00;99.90;;;;;;5010508;28;20517;-89
2023/07/27 07:28:59;;;;;;;7.07;2.60;;;15.00;99.90;;;;;;5010292;28;20033;-89
2023/07/27 07:31:47;;;;;;;6.03;2.83;;;15.00;99.90;;;;;;5006481;28;20049;-88
2023/07/27 07:34:35;;;;;;;3.28;2.78;;;14.90;99.90;;;;;;5019186;28;20038;-91
2023/07/27 07:37:22;;;;;;;3.53;2.33;;;15.00;99.90;;;;;;5028475;28;20046;-90
2023/07/27 07:40:10;;;;;;;3.63;2.45;;;15.00;99.90;;;;;;5028698;28;20056;-91
2023/07/27 07:43:00;;;;;;;4.88;2.92;;;14.90;99.90;;;;;;5030315;28;20091;-92
2023/07/27 07:45:50;;;;;;;5.82;2.65;;;15.00;99.90;;;;;;5007935;28;20049;-92
2023/07/27 07:48:51;;;;;;;6.05;2.83;;;15.00;99.90;;;;;;5009139;28;20060;-91
2023/07/27 07:51:38;;;;;;;6.55;2.83;;;15.00;99.90;;;;;;5008377;28;20038;-90
2023/07/27 07:54:32;;;;;;;5.45;3.13;;;15.00;99.90;;;;;;5010971;28;20489;-91
2023/07/27 07:57:20;;;;;;;4.47;2.65;;;15.00;99.90;;;;;;5012708;28;20382;-91
2023/07/27 08:00:10;;;;;;;4.22;2.75;;;15.10;99.90;;;;;;5013714;28;20203;-89
2023/07/27 08:03:09;;;;;;;5.82;2.88;;;15.10;99.90;;;;;;5012239;28;20506;-89
2023/07/27 08:06:07;;;;;;;6.10;3.05;;;15.20;99.90;;;;;;5027389;28;20046;-92
2023/07/27 08:09:21;;;;;;;4.45;2.83;;;15.40;92.70;;;;;;4950570;28;20078;-92
2023/07/27 08:12:50;;;;;;;;;;;;;;;;;;;;;
2023/07/27 08:15:53;;;;;;;7.47;2.80;;;15.50;32.70;;;;;;4948052;28;20048;-87
2023/07/27 08:18:44;;;;;;;3.42;2.70;;;15.70;16.30;;;;;;4952427;29;20054;-87
2023/07/27 08:21:31;;;;;;;8.40;2.40;;;15.70;1.00;;;;;;4942499;28;20619;-88
2023/07/27 08:24:28;;;;;;;5.38;2.55;;;15.80;1.00;;;;;;4941679;28;20493;-88
2023/07/27 08:27:18;;;;;;;5.35;2.70;;;15.80;1.00;;;;;;5010953;28;20085;-89
2023/07/27 08:30:07;;;;;;;3.80;2.42;;;15.90;1.00;;;;;;5010321;28;20087;-89
2023/07/27 08:32:59;;;;;;;5.43;2.90;;;16.00;1.00;;;;;;5010515;28;20104;-87
2023/07/27 08:35:47;;;;;;;5.03;2.70;;;16.00;1.00;;;;;;5010818;28;20068;-86
2023/07/27 08:38:35;;;;;;;3.17;2.30;;;15.90;1.00;;;;;;5028611;28;20141;-89
2023/07/27 08:41:27;;;;;;;3.30;2.63;;;15.90;1.00;;;;;;5016568;28;20129;-88
2023/07/27 08:44:17;;;;;;;4.90;3.00;;;15.90;1.00;;;;;;5028291;28;20033;-87
2023/07/27 08:47:05;;;;;;;6.28;2.63;;;15.90;1.00;;;;;;5034329;28;20041;-88
2023/07/27 08:49:54;;;;;;;4.13;2.45;;;16.00;1.00;;;;;;5018976;28;20128;-91
2023/07/27 08:52:50;;;;;;;5.75;2.60;;;15.90;1.00;;;;;;5003385;28;20270;-89
2023/07/27 08:55:51;;;;;;;4.47;2.50;;;16.00;1.00;;;;;;5028096;28;20046;-88
2023/07/27 08:58:49;;;;;;;6.65;3.17;;;16.10;1.00;;;;;;5019601;28;20054;-90
2023/07/27 09:01:36;;;;;;;4.00;2.67;;;16.10;1.00;;;;;;5018212;28;20053;-92
2023/07/27 09:04:33;;;;;;;4.80;2.55;;;16.20;1.00;;;;;;5010788;28;20133;-89
2023/07/27 09:07:21;;;;;;;3.28;2.63;;;16.30;1.00;;;;;;5013452;28;20046;-91
2023/07/27 09:10:09;;;;;;;6.63;3.08;;;16.40;99.90;;;;;;5024809;28;20081;-88
2023/07/27 09:13:03;;;;;;;5.28;2.60;;;16.50;99.90;;;;;;5014960;28;20100;-91
2023/07/27 09:15:50;;;;;;;4.13;2.33;;;16.80;99.90;;;;;;5013146;28;20046;-87
2023/07/27 09:18:38;;;;;;;5.72;2.67;;;16.90;99.90;;;;;;5013327;28;20054;-86
2023/07/27 09:21:26;;;;;;;4.90;2.70;;;16.90;99.90;;;;;;5009326;28;20397;-85
2023/07/27 09:24:21;;;;;;;5.53;2.70;;;16.90;99.90;;;;;;5013515;28;20084;-89
2023/07/27 09:27:15;;;;;;;4.28;2.55;;;16.90;99.90;;;;;;5013715;28;20562;-87
2023/07/27 09:30:07;;;;;;;3.17;2.58;;;16.90;99.90;;;;;;5010242;28;20034;-85
2023/07/27 09:32:54;;;;;;;3.70;2.30;;;16.90;99.90;;;;;;5023276;28;20038;-86
2023/07/27 09:35:43;;;;;;;6.00;2.58;;;16.80;99.90;;;;;;5009315;28;20420;-85
2023/07/27 09:38:31;;;;;;;3.83;2.65;;;16.70;99.90;;;;;;5007789;28;20081;-87
2023/07/27 09:41:18;;;;;;;5.18;2.42;;;16.60;99.90;;;;;;5011455;28;20635;-86
2023/07/27 09:44:06;;;;;;;5.28;2.63;;;16.60;99.90;;;;;;5007056;28;20046;-87
2023/07/27 09:46:55;;;;;;;5.85;2.60;;;16.50;99.90;;;;;;5010095;28;20403;-85
2023/07/27 09:49:46;;;;;;;7.20;2.60;;;16.50;99.90;;;;;;5010866;28;20042;-86
2023/07/27 09:52:38;;;;;;;3.55;2.80;;;16.40;1.00;;;;;;5012660;28;20046;-87
2023/07/27 09:55:25;;;;;;;8.97;3.03;;;16.20;1.00;;;;;;5012959;28;20064;-85
2023/07/27 09:58:15;;;;;;;7.18;2.75;;;16.10;1.00;;;;;;5008814;28;20519;-86
2023/07/27 10:01:02;;;;;;;4.70;2.50;;;16.00;1.00;;;;;;5009951;28;20487;-86
2023/07/27 10:03:50;;;;;;;4.05;2.78;;;16.10;1.00;;;;;;5023229;28;20189;-87
2023/07/27 10:06:37;;;;;;;3.55;2.55;;;16.20;1.00;;;;;;5010657;28;20075;-89
2023/07/27 10:09:25;;;;;;;4.53;2.60;;;16.30;1.00;;;;;;5011132;28;20124;-91
2023/07/27 10:12:30;;;;;;;5.18;2.20;;;16.40;1.00;;;;;;5010510;28;20045;-87
2023/07/27 10:15:32;;;;;;;10.90;3.13;;;16.60;1.00;;;;;;5011526;28;20037;-90
2023/07/27 10:18:25;;;;;;;3.40;2.50;;;16.70;1.00;;;;;;5008192;28;20051;-90
2023/07/27 10:21:23;;;;;;;2.83;2.20;;;16.90;1.00;;;;;;5024748;28;20061;-91
2023/07/27 10:24:23;;;;;;;2.47;2.05;;;17.10;1.00;;;;;;5013300;28;20444;-90
2023/07/27 10:27:11;;;;;;;4.50;2.20;;;17.30;99.90;;;;;;4994930;28;20038;-90
2023/07/27 10:30:11;;;;;;;7.32;2.30;;;17.50;99.90;;;;;;5008833;28;20483;-88
2023/07/27 10:33:15;;;;;;;3.25;2.00;;;17.80;99.90;;;;;;5022470;28;20045;-87
2023/07/27 10:36:06;;;;;;;5.82;2.30;;;17.90;99.90;;;;;;5020799;28;20084;-88
2023/07/27 10:38:54;;;;;;;2.67;2.03;;;18.20;99.90;;;;;;5011658;28;20168;-89
2023/07/27 10:41:59;;;;;;;4.85;2.15;;;18.50;99.90;;;;;;5010049;28;20129;-85
2023/07/27 10:44:57;;;;;;;10.13;2.95;;;19.20;99.90;;;;;;5012058;28;20049;-93
2023/07/27 10:47:48;;;;;;;4.15;1.92;;;19.70;99.90;;;;;;5021979;28;20049;-87
2023/07/27 10:50:39;;;;;;;5.90;2.20;;;19.40;99.90;;;;;;5020297;28;20045;-90
2023/07/27 10:53:26;;;;;;;3.50;1.88;;;19.00;99.90;;;;;;5007000;28;20292;-88
2023/07/27 10:56:17;;;;;;;2.92;2.00;;;18.70;99.90;;;;;;5008447;28;20068;-91
2023/07/27 10:59:07;;;;;;;3.58;2.10;;;18.70;99.90;;;;;;5012876;28;20050;-88
2023/07/27 11:01:55;;;;;;;2.88;2.10;;;18.60;99.90;;;;;;5011909;28;20129;-93
2023/07/27 11:04:43;;;;;;;2.92;2.10;;;18.90;99.90;;;;;;5024165;28;20054;-88
2023/07/27 11:07:34;;;;;;;3.25;1.80;;;19.10;99.90;;;;;;5019604;28;20054;-89
2023/07/27 11:10:30;;;;;;;7.27;2.10;;;19.20;99.90;;;;;;5027152;28;20061;-89
2023/07/27 11:13:22;;;;;;;3.47;2.10;;;19.20;99.90;;;;;;5020440;28;20306;-89
2023/07/27 11:16:18;;;;;;;2.03;1.60;;;19.20;99.90;;;;;;5017156;28;20153;-90
2023/07/27 11:19:21;;;;;;;3.78;1.90;;;19.20;99.90;;;;;;5027942;28;20534;-90
2023/07/27 11:22:10;;;;;;;3.25;1.58;;;19.20;99.90;;;;;;5019050;28;20062;-90
2023/07/27 11:25:04;;;;;;;2.80;2.00;;;19.20;99.90;;;;;;5033845;28;20049;-91
2023/07/27 11:27:53;;;;;;;4.63;2.42;;;19.30;99.90;;;;;;5028662;28;20514;-90
2023/07/27 11:30:54;;;;;;;2.38;1.90;;;19.30;99.90;;;;;;5011165;28;20050;-90
2023/07/27 11:33:42;;;;;;;5.15;1.85;;;19.20;99.90;;;;;;5014399;28;20459;-90
2023/07/27 11:36:34;;;;;;;3.05;2.00;;;19.00;99.90;;;;;;5015992;28;20131;-89
2023/07/27 11:39:23;;;;;;;2.50;2.00;;;18.80;99.90;;;;;;5015283;28;20145;-90
2023/07/27 11:42:14;;;;;;;2.45;1.73;;;18.40;99.90;;;;;;5016135;28;20124;-88
2023/07/27 11:45:03;;;;;;;5.65;1.90;;;18.30;99.90;;;;;;5014063;28;20038;-88
2023/07/27 11:47:55;;;;;;;7.47;2.33;;;18.50;99.90;;;;;;5012534;28;20054;-90
2023/07/27 11:50:48;;;;;;;;;;;18.60;99.90;;;;;;5029948;28;20037;-93
2023/07/27 11:53:36;;;;;;;2.47;1.70;;;18.80;99.90;;;;;;5017292;28;19979;-89
2023/07/27 11:56:32;;;;;;;3.30;1.77;;;18.70;99.90;;;;;;5014076;28;20095;-91
2023/07/27 11:59:21;;;;;;;3.35;1.80;;;18.80;99.90;;;;;;5014956;28;20058;-90
2023/07/27 12:02:15;;;;;;;3.38;2.00;;;18.70;99.90;;;;;;5015879;28;20065;-90
2023/07/27 12:05:07;;;;;;;2.80;1.50;;;18.70;99.90;;;;;;5012997;28;20042;-89
2023/07/27 12:07:56;;;;;;;2.83;1.30;;;18.70;1.00;;;;;;5025241;28;20050;-89
2023/07/27 12:10:54;;;;;;;3.17;1.55;;;18.40;1.00;;;;;;5008838;28;20049;-89
2023/07/27 12:13:46;;;;;;;3.85;2.15;;;18.20;1.00;;;;;;5015548;28;20107;-87
2023/07/27 12:16:41;;;;;;;;;;;18.10;1.00;;;;;;5011357;28;20053;-86
2023/07/27 12:19:36;;;;;;;2.22;1.90;;;18.00;1.00;;;;;;5013569;28;19921;-89
2023/07/27 12:22:25;;;;;;;3.07;1.73;;;18.00;46.20;;;;;;5011324;28;20055;-87
2023/07/27 12:25:15;;;;;;;3.40;1.90;;;17.80;99.90;;;;;;5010495;28;20042;-89
2023/07/27 12:28:08;;;;;;;4.15;2.22;;;17.70;99.90;;;;;;5012752;28;20037;-86
2023/07/27 12:30:58;;;;;;;7.00;2.50;;;17.40;99.90;;;;;;5009049;28;20160;-85
2023/07/27 12:33:48;;;;;;;3.58;2.40;;;17.40;99.90;;;;;;5011760;28;20054;-88
2023/07/27 12:36:36;;;;;;;2.83;2.35;;;17.30;99.90;;;;;;5009021;28;20051;-86
2023/07/27 12:39:23;;;;;;;3.03;2.20;;;17.40;1.00;;;;;;5009744;28;20041;-85
2023/07/27 12:42:13;;;;;;;2.83;2.33;;;17.40;99.90;;;;;;5014786;28;20050;-85
2023/07/27 12:45:06;;;;;;;3.72;2.22;;;17.50;99.90;;;;;;5029551;28;20100;-89
2023/07/27 12:47:56;;;;;;;4.20;2.72;;;17.60;99.90;;;;;;5039424;28;20042;-87
2023/07/27 12:50:49;;;;;;;3.78;2.25;;;17.70;1.00;;;;;;5032636;28;20052;-86
2023/07/27 12:53:37;;;;;;;4.05;2.38;;;17.80;99.90;;;;;;5027038;28;20428;-90
2023/07/27 12:56:28;;;;;;;9.35;2.60;;;17.80;1.00;;;;;;5013961;28;20049;-90
2023/07/27 12:59:16;;;;;;;3.33;2.40;;;17.90;1.00;;;;;;5021674;28;20050;-88
2023/07/27 13:02:06;;;;;;;5.38;2.50;;;18.00;99.90;;;;;;5011935;28;20133;-89
2023/07/27 13:04:57;;;;;;;2.95;2.28;;;18.00;99.90;;;;;;5011744;28;20041;-84
2023/07/27 13:07:48;;;;;;;3.85;2.55;;;17.90;1.00;;;;;;5012328;28;20124;-85
2023/07/27 13:10:36;;;;;;;4.18;2.40;;;17.90;99.90;;;;;;5009150;28;20056;-86
2023/07/27 13:13:25;;;;;;;3.22;2.30;;;17.80;99.90;;;;;;5009252;28;20096;-84
2023/07/27 13:16:13;;;;;;;9.90;2.47;;;17.80;99.90;;;;;;5009017;28;20191;-86
2023/07/27 13:19:04;;;;;;;4.28;2.53;;;17.80;99.90;;;;;;5010447;28;20049;-85
2023/07/27 13:21:56;;;;;;;3.42;2.10;;;17.70;99.90;;;;;;5011202;28;20500;-87
2023/07/27 13:24:46;;;;;;;5.97;2.65;;;17.60;1.00;;;;;;5024493;28;20101;-88
2023/07/27 13:31:22;;;;;;;3.13;2.38;;;17.50;99.90;;;;;;5009562;28;20057;-90
2023/07/27 13:34:15;;;;;;;6.32;2.40;;;17.50;1.00;;;;;;5006897;28;20148;-91
2023/07/27 13:37:02;;;;;;;3.60;2.38;;;17.40;99.90;;;;;;5003295;28;20464;-89
2023/07/27 13:39:50;;;;;;;6.13;2.88;;;17.30;99.90;;;;;;5008156;28;20042;-86
2023/07/27 13:42:37;;;;;;;4.03;2.60;;;17.40;53.80;;;;;;5010517;28;20573;-89
2023/07/27 13:45:27;;;;;;;4.90;2.75;;;17.40;1.00;;;;;;5008435;28;20482;-87
2023/07/27 13:48:19;;;;;;;2.65;2.15;;;17.40;99.40;;;;;;5005063;28;20037;-88
2023/07/27 13:51:09;;;;;;;5.18;2.78;;;17.50;99.90;;;;;;5003756;28;20037;-88
2023/07/27 13:54:04;;;;;;;3.53;2.60;;;17.50;99.90;;;;;;5007539;28;20129;-90
2023/07/27 13:56:51;;;;;;;4.65;2.78;;;17.60;1.00;;;;;;5007738;28;20973;-86
2023/07/27 14:03:27;;;;;;;3.97;2.42;;;17.60;99.90;;;;;;5011761;28;20383;-85
2023/07/27 14:06:19;;;;;;;3.03;2.40;;;17.80;99.90;;;;;;5010806;28;20188;-87
2023/07/27 14:09:08;;;;;;;5.53;2.47;;;17.90;99.90;;;;;;5023328;28;20050;-86
2023/07/27 14:11:56;;;;;;;3.70;2.20;;;18.00;1.00;;;;;;5009077;28;20069;-86
2023/07/27 14:14:46;;;;;;;5.53;2.17;;;18.10;1.00;;;;;;5012159;28;20069;-85
2023/07/27 14:17:38;;;;;;;3.50;2.22;;;18.20;1.00;;;;;;5011274;28;20046;-89
2023/07/27 14:20:26;;;;;;;5.50;2.25;;;18.30;99.90;;;;;;5006749;28;20046;-85
2023/07/27 14:23:18;;;;;;;2.83;2.10;;;18.40;99.90;;;;;;5006297;28;20068;-88
2023/07/27 14:26:07;;;;;;;3.55;2.50;;;18.60;94.50;;;;;;5017864;28;20110;-88
2023/07/27 14:29:16;;;;;;;4.50;2.10;;;18.80;99.90;;;;;;5008322;28;20065;-87
2023/07/27 14:32:14;;;;;;;7.63;3.05;;;19.00;1.00;;;;;;5008589;28;20054;-87
2023/07/27 14:35:09;;;;;;;5.90;3.42;;;19.20;1.00;;;;;;5010195;28;20037;-85
2023/07/27 14:37:59;;;;;;;3.03;2.03;;;19.30;1.00;;;;;;5013302;28;20603;-89
2023/07/27 14:41:49;;;;;;;;;;;;;;;;;;;;;
2023/07/27 14:44:36;;;;;;;6.10;2.72;;;19.50;99.90;;;;;;5007716;28;20053;-87
2023/07/27 14:47:24;;;;;;;5.22;2.45;;;19.60;99.90;;;;;;5008361;28;20057;-86
2023/07/27 14:50:11;;;;;;;2.35;2.10;;;19.60;99.90;;;;;;5008794;28;20176;-87
2023/07/27 14:53:00;;;;;;;6.20;2.35;;;19.60;99.90;;;;;;5008906;28;20046;-88
2023/07/27 14:55:47;;;;;;;5.18;2.10;;;19.90;99.90;;;;;;5005771;28;20062;-89
2023/07/27 14:58:37;;;;;;;4.85;2.13;;;20.20;99.90;;;;;;5009981;28;20049;-91
2023/07/27 15:01:35;;;;;;;3.22;1.88;;;20.60;99.90;;;;;;5007148;28;20053;-90
2023/07/27 15:04:37;;;;;;;6.97;3.17;;;20.60;99.90;;;;;;5017458;28;20081;-88
2023/07/27 15:07:27;;;;;;;1.95;1.75;;;20.50;1.00;;;;;;5015463;28;20085;-88
2023/07/27 15:10:17;;;;;;;4.18;2.00;;;20.50;1.00;;;;;;5028166;28;20344;-88
2023/07/27 15:13:07;;;;;;;2.25;1.83;;;20.60;1.00;;;;;;5025546;28;20041;-90
2023/07/27 15:15:55;;;;;;;3.05;2.08;;;20.70;1.00;;;;;;5007022;28;20072;-86
2023/07/27 15:18:43;;;;;;;2.03;1.80;;;21.00;99.90;;;;;;5024284;28;20046;-86
2023/07/27 15:21:31;;;;;;;3.25;1.77;;;21.40;99.90;;;;;;5027014;28;20428;-87
2023/07/27 15:24:26;;;;;;;3.75;1.77;;;22.00;99.90;;;;;;5011284;28;20145;-91
2023/07/27 15:27:29;;;;;;;4.53;2.05;;;23.10;99.90;;;;;;5013365;28;20057;-88
2023/07/27 15:30:17;;;;;;;2.53;1.77;;;23.50;99.90;;;;;;5014028;28;20045;-87
2023/07/27 15:33:06;;;;;;;3.10;1.92;;;22.90;99.90;;;;;;5019794;28;20041;-86
2023/07/27 15:35:56;;;;;;;2.92;1.60;;;22.10;99.90;;;;;;5017816;28;20125;-84
2023/07/27 15:38:46;;;;;;;2.13;1.92;;;21.60;99.90;;;;;;5010824;28;20131;-87
2023/07/27 15:41:35;;;;;;;3.78;2.05;;;21.30;99.90;;;;;;5017435;28;20406;-85
2023/07/27 15:44:23;;;;;;;4.00;2.10;;;21.10;99.90;;;;;;5016312;28;20136;-88
2023/07/27 15:47:13;;;;;;;3.05;2.05;;;21.20;99.90;;;;;;5027465;28;20049;-85
2023/07/27 15:50:00;;;;;;;3.00;2.00;;;21.10;99.90;;;;;;5024581;28;20109;-86
2023/07/27 15:52:52;;;;;;;4.32;2.00;;;21.20;99.90;;;;;;5020015;28;20053;-88
2023/07/27 15:55:45;;;;;;;3.00;1.85;;;21.20;99.90;;;;;;5049189;28;20049;-84
2023/07/27 15:58:33;;;;;;;2.83;1.73;;;21.10;99.90;;;;;;5025698;28;20065;-86
2023/07/27 16:01:35;;;;;;;2.97;2.03;;;21.00;99.90;;;;;;5029284;28;20057;-86
2023/07/27 16:04:25;;;;;;;3.55;2.20;;;20.80;99.90;;;;;;5018386;28;20109;-86
2023/07/27 16:07:12;;;;;;;4.85;1.90;;;20.80;99.90;;;;;;5012238;28;20041;-85
2023/07/27 16:10:02;;;;;;;3.20;2.03;;;20.70;99.90;;;;;;5020073;28;20073;-86
2023/07/27 16:12:52;;;;;;;2.05;1.63;;;20.70;99.90;;;;;;5008491;28;20192;-87
2023/07/27 16:15:40;;;;;;;2.10;1.70;;;20.70;99.90;;;;;;5017604;28;20042;-89
2023/07/27 16:18:29;;;;;;;2.38;2.00;;;20.60;99.90;;;;;;5019200;28;20069;-86
2023/07/27 16:21:19;;;;;;;2.53;1.77;;;20.60;99.90;;;;;;5026924;28;20052;-86
2023/07/27 16:24:07;;;;;;;2.15;1.90;;;20.60;99.90;;;;;;5015277;28;20344;-88
2023/07/27 16:26:54;;;;;;;2.78;1.90;;;20.60;99.90;;;;;;5029601;28;20092;-85
2023/07/27 16:29:42;;;;;;;2.78;2.00;;;20.60;99.90;;;;;;5007967;28;20042;-86
2023/07/27 16:32:31;;;;;;;3.88;2.17;;;20.50;99.90;;;;;;5031381;28;20045;-92
2023/07/27 16:35:19;;;;;;;3.78;1.83;;;20.50;99.90;;;;;;5015837;28;20069;-88
2023/07/27 16:38:07;;;;;;;3.00;1.75;;;20.50;99.90;;;;;;5018801;28;20107;-86
2023/07/27 16:40:58;;;;;;;2.17;1.90;;;20.40;99.90;;;;;;5015991;28;20048;-88
2023/07/27 16:43:46;;;;;;;3.33;2.03;;;20.40;99.90;;;;;;5009841;28;20471;-92
2023/07/27 16:46:33;;;;;;;4.20;1.80;;;20.30;99.90;;;;;;5018923;28;20045;-91
2023/07/27 16:49:23;;;;;;;4.55;1.80;;;20.20;99.90;;;;;;5018399;28;20052;-90
2023/07/27 16:52:11;;;;;;;2.60;1.80;;;20.20;99.90;;;;;;5026925;28;20341;-90
2023/07/27 16:54:58;;;;;;;2.70;1.80;;;20.30;99.90;;;;;;5029396;28;20037;-90
2023/07/27 16:57:46;;;;;;;6.65;2.10;;;20.20;99.90;;;;;;5017785;28;20049;-90
2023/07/27 17:00:36;;;;;;;4.13;2.10;;;20.20;99.90;;;;;;5015541;28;20402;-91
2023/07/27 17:03:24;;;;;;;2.10;1.88;;;20.20;99.90;;;;;;5006998;28;20049;-91
2023/07/27 17:06:16;;;;;;;2.75;2.13;;;20.10;99.90;;;;;;5009655;28;20038;-89
2023/07/27 17:09:04;;;;;;;4.25;2.08;;;20.10;99.90;;;;;;5008033;28;20053;-90
2023/07/27 17:11:52;;;;;;;6.05;2.17;;;20.00;99.90;;;;;;5026801;28;20100;-89
2023/07/27 17:14:43;;;;;;;6.25;2.10;;;20.00;99.90;;;;;;5024921;28;20056;-90
2023/07/27 17:17:30;;;;;;;4.40;2.05;;;20.00;99.90;;;;;;5016275;28;20056;-92
2023/07/27 17:20:18;;;;;;;2.53;2.00;;;20.00;99.90;;;;;;5013384;28;20164;-93
2023/07/27 17:23:05;;;;;;;2.13;1.90;;;19.90;99.90;;;;;;5014458;28;20128;-90
2023/07/27 17:25:56;;;;;;;3.72;2.15;;;19.80;99.90;;;;;;5009372;28;20128;-90
2023/07/27 17:28:43;;;;;;;5.22;2.00;;;19.90;99.90;;;;;;5006249;28;20049;-91
2023/07/27 17:31:32;;;;;;;4.45;2.08;;;19.90;99.90;;;;;;5013884;28;20046;-89
2023/07/27 17:34:20;;;;;;;3.53;2.20;;;19.90;99.90;;;;;;5027576;28;20049;-89
2023/07/27 17:37:07;;;;;;;3.00;1.85;;;19.90;99.90;;;;;;5014486;28;20050;-91
2023/07/27 17:39:57;;;;;;;2.55;1.70;;;19.90;99.90;;;;;;5021609;28;20415;-90
2023/07/27 17:42:45;;;;;;;2.88;1.85;;;19.90;99.90;;;;;;5011123;28;20046;-92
2023/07/27 17:45:32;;;;;;;6.20;2.55;;;19.90;99.90;;;;;;5012869;28;20049;-91
2023/07/27 17:48:22;;;;;;;2.92;2.13;;;19.90;99.90;;;;;;5012872;28;20374;-90
2023/07/27 17:51:09;;;;;;;3.55;2.40;;;19.80;99.90;;;;;;5012548;28;20046;-89
2023/07/27 17:54:03;;;;;;;3.53;2.05;;;19.90;99.90;;;;;;5011178;28;20049;-88
2023/07/27 17:56:51;;;;;;;3.65;2.30;;;19.80;99.90;;;;;;5006136;28;20050;-88
2023/07/27 17:59:38;;;;;;;5.25;2.60;;;19.80;99.90;;;;;;5014757;28;20048;-91
2023/07/27 18:02:25;;;;;;;5.30;2.00;;;19.80;99.90;;;;;;5023992;28;20120;-88
2023/07/27 18:05:13;;;;;;;4.25;2.78;;;19.80;99.90;;;;;;5010574;28;20489;-89
2023/07/27 18:08:05;;;;;;;4.07;3.10;;;19.80;99.90;;;;;;5010525;28;20131;-93
2023/07/27 18:10:53;;;;;;;5.50;2.67;;;19.80;99.90;;;;;;5013818;28;20046;-91
2023/07/27 18:13:42;;;;;;;3.58;2.97;;;19.70;99.90;;;;;;5011632;28;20057;-91
2023/07/27 18:16:29;;;;;;;4.95;3.40;;;19.70;99.90;;;;;;5017019;28;20454;-90
2023/07/27 18:19:17;;;;;;;3.72;2.58;;;19.60;99.90;;;;;;5029349;28;20061;-92
2023/07/27 18:22:10;;;;;;;3.55;2.45;;;19.50;99.90;;;;;;5020375;28;20475;-90
2023/07/27 18:25:01;;;;;;;2.53;2.20;;;19.40;99.90;;;;;;5005672;28;20042;-90
2023/07/27 18:27:51;;;;;;;2.67;2.35;;;19.50;99.90;;;;;;5005147;28;20042;-91
2023/07/27 18:30:39;;;;;;;2.97;2.33;;;19.40;99.90;;;;;;5005510;28;20467;-89
2023/07/27 18:33:27;;;;;;;4.35;2.30;;;19.40;99.90;;;;;;5011813;28;20508;-90
2023/07/27 18:36:15;;;;;;;6.05;3.05;;;19.40;99.90;;;;;;5011938;28;20671;-90
2023/07/27 18:39:05;;;;;;;4.63;2.50;;;19.30;99.90;;;;;;5016796;28;20050;-89
2023/07/27 18:41:54;;;;;;;4.55;2.38;;;19.20;99.90;;;;;;5018460;28;20038;-90